Terminal Aerodrome Forecast
Issued by NWS

Home | Current Version | Previous Version | Text Only | Print | Product List | Glossary Off
Versions: 1 2 3 4 5 6 7 8 9 10 11 12 13 14 15 16 17 18 19 20 21

000
FTUS41 KCLE 161700
TAFFDY
TAF
KFDY 161736Z 1618/1718 24012G22KT 6SM -RA BR VCSH OVC012
      TEMPO 1618/1622 3SM -RA BR OVC008
     FM170000 25012G22KT P6SM OVC010
     FM170400 25015G25KT P6SM BKN015
     FM171300 27015G25KT P6SM SCT015 BKN025=

USA.gov is the U.S. government's official web portal to all federal, state and local government web resources and services.